createdAt,value
2018-09-04T00:00:09.503Z,14.85
2018-09-04T00:01:14.168Z,13.93
2018-09-04T00:02:17.627Z,14.65
2018-09-04T00:03:21.125Z,15.05
2018-09-04T00:04:24.529Z,14.33
2018-09-04T00:05:27.936Z,14.45
2018-09-04T00:06:31.347Z,14.65
2018-09-04T00:07:34.895Z,14.28
2018-09-04T00:08:38.301Z,14.20
2018-09-04T00:09:41.729Z,13.85
2018-09-04T00:10:46.036Z,13.93
2018-09-04T00:11:49.492Z,14.40
2018-09-04T00:12:52.908Z,14.10
2018-09-04T00:13:56.604Z,14.10
2018-09-04T00:14:59.999Z,13.62
2018-09-04T00:16:09.965Z,13.93
2018-09-04T00:17:13.373Z,14.23
2018-09-04T00:18:16.795Z,13.05
2018-09-04T00:19:20.211Z,12.73
2018-09-04T00:20:25.407Z,12.90
2018-09-04T00:21:29.777Z,13.43
2018-09-04T00:22:33.234Z,13.78
2018-09-04T00:23:36.792Z,14.23
2018-09-04T00:24:40.400Z,13.00
2018-09-04T00:25:44.964Z,13.50
2018-09-04T00:26:48.396Z,13.48
2018-09-04T00:27:51.789Z,12.68
2018-09-04T00:28:55.244Z,13.68
2018-09-04T00:29:58.660Z,13.35
2018-09-04T00:31:03.182Z,13.15
2018-09-04T00:32:06.985Z,12.23
2018-09-04T00:33:10.368Z,13.40
2018-09-04T00:34:13.871Z,13.22
2018-09-04T00:35:18.363Z,13.08
2018-09-04T00:36:22.887Z,13.03
2018-09-04T00:37:26.324Z,12.47
2018-09-04T00:38:29.781Z,13.80
2018-09-04T00:39:33.267Z,12.90
2018-09-04T00:40:37.921Z,12.98
2018-09-04T00:41:41.342Z,12.80
2018-09-04T00:42:44.793Z,12.60
2018-09-04T00:43:48.220Z,13.03
2018-09-04T00:44:51.712Z,13.25
2018-09-04T00:45:56.221Z,13.10
2018-09-04T00:46:59.792Z,12.05
2018-09-04T00:48:03.184Z,12.47
2018-09-04T00:49:06.591Z,13.95
2018-09-04T00:50:11.181Z,12.68
2018-09-04T00:51:16.072Z,12.75
2018-09-04T00:52:19.496Z,13.05
2018-09-04T00:53:22.876Z,13.68
2018-09-04T00:54:26.323Z,13.90
2018-09-04T00:55:30.884Z,12.50
2018-09-04T00:56:34.316Z,12.60
2018-09-04T00:57:37.823Z,13.78
2018-09-04T00:58:41.293Z,12.30
2018-09-04T00:59:44.687Z,12.78
2018-09-04T01:00:50.888Z,13.18
2018-09-04T01:01:54.576Z,13.15
2018-09-04T01:02:58.652Z,13.60
2018-09-04T01:04:02.050Z,13.83
2018-09-04T01:05:06.206Z,13.35
2018-09-04T01:06:10.977Z,12.68
2018-09-04T01:07:15.077Z,13.00
2018-09-04T01:08:18.469Z,12.43
2018-09-04T01:09:23.094Z,12.55
2018-09-04T01:10:27.405Z,12.98
2018-09-04T01:11:31.016Z,13.20
2018-09-04T01:12:34.422Z,13.05
2018-09-04T01:13:42.547Z,12.75
2018-09-04T01:14:45.998Z,12.80
2018-09-04T01:15:50.393Z,12.35
2018-09-04T01:16:53.820Z,13.22
2018-09-04T01:17:57.247Z,12.93
2018-09-04T01:19:00.662Z,12.82
2018-09-04T01:20:05.290Z,13.62
2018-09-04T01:21:10.714Z,12.47
2018-09-04T01:22:14.221Z,13.40
2018-09-04T01:23:17.616Z,12.78
2018-09-04T01:24:21.036Z,12.80
2018-09-04T01:25:25.703Z,12.28
2018-09-04T01:26:29.606Z,13.15
2018-09-04T01:27:33.088Z,11.90
2018-09-04T01:28:36.512Z,13.30
2018-09-04T01:29:39.900Z,12.75
2018-09-04T01:30:44.320Z,12.55
2018-09-04T01:31:47.727Z,12.60
2018-09-04T01:32:51.285Z,12.23
2018-09-04T01:33:54.680Z,11.88
2018-09-04T01:34:58.073Z,12.55
2018-09-04T01:36:02.691Z,13.78
2018-09-04T01:37:06.220Z,13.20
2018-09-04T01:38:09.650Z,13.45
2018-09-04T01:39:13.049Z,13.88
2018-09-04T01:40:17.684Z,13.15
2018-09-04T01:41:22.388Z,13.15
2018-09-04T01:42:25.763Z,13.48
2018-09-04T01:43:29.199Z,13.00
2018-09-04T01:44:32.588Z,13.00
2018-09-04T01:45:36.886Z,13.58
2018-09-04T01:46:40.612Z,13.65
2018-09-04T01:47:44.140Z,12.82
2018-09-04T01:48:48.463Z,13.53
2018-09-04T01:49:51.875Z,13.93
2018-09-04T01:50:59.230Z,13.88
2018-09-04T01:52:02.686Z,12.40
2018-09-04T01:53:06.381Z,12.90
2018-09-04T01:54:09.838Z,12.55
2018-09-04T01:55:14.473Z,13.15
2018-09-04T01:56:19.972Z,13.62
2018-09-04T01:57:23.428Z,12.98
2018-09-04T01:58:26.965Z,12.80
2018-09-04T01:59:30.359Z,12.78
2018-09-04T02:00:35.261Z,12.90
2018-09-04T02:01:38.748Z,12.88
2018-09-04T02:02:42.160Z,12.75
2018-09-04T02:03:45.553Z,13.28
2018-09-04T02:04:50.616Z,12.90
2018-09-04T02:05:54.956Z,12.90
2018-09-04T02:06:58.369Z,12.20
2018-09-04T02:08:01.788Z,13.15
2018-09-04T02:09:06.425Z,12.78
2018-09-04T02:10:10.956Z,13.00
2018-09-04T02:11:15.311Z,13.22
2018-09-04T02:12:18.736Z,13.53
2018-09-04T02:13:22.122Z,12.18
2018-09-04T02:14:25.546Z,13.55
2018-09-04T02:15:31.185Z,13.03
2018-09-04T02:16:34.652Z,12.28
2018-09-04T02:17:38.044Z,12.53
2018-09-04T02:18:41.445Z,13.32
2018-09-04T02:19:44.834Z,13.43
2018-09-04T02:20:50.080Z,12.70
2018-09-04T02:21:53.520Z,12.40
2018-09-04T02:22:56.981Z,12.85
2018-09-04T02:24:00.369Z,12.53
2018-09-04T02:25:03.971Z,13.78
2018-09-04T02:26:08.913Z,12.73
2018-09-04T02:27:12.318Z,12.43
2018-09-04T02:28:15.794Z,12.45
2018-09-04T02:29:19.198Z,13.72
2018-09-04T02:30:23.671Z,13.05
2018-09-04T02:31:28.258Z,12.33
2018-09-04T02:32:31.701Z,12.70
2018-09-04T02:33:35.108Z,13.40
2018-09-04T02:34:38.789Z,12.68
2018-09-04T02:35:43.418Z,12.88
2018-09-04T02:36:46.860Z,12.63
2018-09-04T02:37:50.265Z,12.50
2018-09-04T02:38:53.800Z,13.18
2018-09-04T02:39:57.241Z,12.70
2018-09-04T02:41:02.336Z,13.05
2018-09-04T02:42:05.900Z,12.70
2018-09-04T02:43:09.316Z,12.20
2018-09-04T02:44:12.763Z,13.40
2018-09-04T02:45:17.386Z,12.78
2018-09-04T02:46:21.875Z,12.80
2018-09-04T02:47:25.381Z,12.43
2018-09-04T02:48:28.795Z,12.35
2018-09-04T02:49:32.284Z,13.98
2018-09-04T02:50:36.772Z,12.45
2018-09-04T02:51:40.285Z,12.68
2018-09-04T02:52:43.746Z,12.25
2018-09-04T02:53:47.220Z,12.18
2018-09-04T02:54:50.701Z,12.50
2018-09-04T02:55:55.316Z,12.95
2018-09-04T02:56:58.813Z,12.68
2018-09-04T02:58:02.241Z,12.60
2018-09-04T02:59:05.713Z,12.60
2018-09-04T03:00:10.464Z,12.37
2018-09-04T03:01:14.949Z,12.65
2018-09-04T03:02:18.428Z,13.65
2018-09-04T03:03:21.840Z,13.30
2018-09-04T03:04:25.307Z,12.25
2018-09-04T03:05:29.803Z,13.35
2018-09-04T03:06:33.283Z,12.05
2018-09-04T03:07:36.741Z,12.33
2018-09-04T03:08:40.188Z,13.10
2018-09-04T03:09:43.581Z,13.43
2018-09-04T03:10:48.055Z,13.55
2018-09-04T03:11:51.483Z,12.58
2018-09-04T03:12:54.923Z,13.15
2018-09-04T03:13:58.430Z,12.90
2018-09-04T03:15:01.770Z,12.75
2018-09-04T03:16:06.521Z,12.65
2018-09-04T03:17:09.950Z,12.40
2018-09-04T03:18:13.333Z,12.90
2018-09-04T03:19:16.928Z,12.50
2018-09-04T03:20:21.507Z,12.95
2018-09-04T03:21:26.004Z,12.63
2018-09-04T03:22:29.408Z,12.50
2018-09-04T03:23:32.937Z,12.43
2018-09-04T03:24:36.875Z,13.00
2018-09-04T03:25:41.501Z,13.00
2018-09-04T03:26:44.932Z,13.30
2018-09-04T03:27:48.399Z,12.85
2018-09-04T03:28:51.805Z,13.20
2018-09-04T03:29:55.220Z,13.60
2018-09-04T03:31:00.516Z,13.50
2018-09-04T03:32:03.977Z,13.15
2018-09-04T03:33:07.463Z,13.60
2018-09-04T03:34:10.853Z,13.18
2018-09-04T03:35:15.513Z,13.90
2018-09-04T03:36:20.174Z,12.70
2018-09-04T03:37:23.753Z,12.65
2018-09-04T03:38:27.191Z,12.85
2018-09-04T03:39:30.620Z,14.30
2018-09-04T03:40:35.304Z,13.45
2018-09-04T03:41:38.724Z,14.28
2018-09-04T03:42:42.439Z,13.88
2018-09-04T03:43:45.892Z,14.07
2018-09-04T03:44:49.280Z,13.70
2018-09-04T03:45:53.725Z,14.28
2018-09-04T03:46:57.177Z,13.55
2018-09-04T03:48:00.605Z,13.70
2018-09-04T03:49:03.988Z,14.13
2018-09-04T03:50:09.299Z,13.10
2018-09-04T03:51:13.868Z,13.35
2018-09-04T03:52:17.530Z,12.70
2018-09-04T03:53:21.024Z,13.83
2018-09-04T03:54:24.420Z,13.72
2018-09-04T03:55:28.995Z,13.68
2018-09-04T03:56:32.427Z,14.05
2018-09-04T03:57:35.919Z,13.13
2018-09-04T03:58:39.317Z,13.48
2018-09-04T03:59:42.957Z,14.45
2018-09-04T04:00:48.081Z,14.05
2018-09-04T04:01:51.568Z,13.80
2018-09-04T04:02:54.964Z,13.70
2018-09-04T04:03:58.416Z,14.45
2018-09-04T04:05:01.816Z,13.78
2018-09-04T04:06:06.948Z,13.88
2018-09-04T04:07:10.427Z,13.85
2018-09-04T04:08:13.876Z,14.03
2018-09-04T04:09:17.360Z,13.38
2018-09-04T04:10:21.833Z,14.18
2018-09-04T04:11:26.540Z,14.10
2018-09-04T04:12:29.964Z,13.48
2018-09-04T04:13:33.422Z,14.35
2018-09-04T04:14:36.852Z,13.62
2018-09-04T04:15:41.395Z,14.95
2018-09-04T04:16:44.811Z,14.33
2018-09-04T04:17:48.224Z,13.65
2018-09-04T04:18:51.692Z,13.90
2018-09-04T04:19:55.097Z,13.75
2018-09-04T04:21:00.546Z,14.75
2018-09-04T04:22:04.024Z,15.32
2018-09-04T04:23:07.467Z,13.85
2018-09-04T04:24:10.877Z,14.53
2018-09-04T04:25:15.370Z,13.45
2018-09-04T04:26:20.626Z,13.95
2018-09-04T04:27:24.068Z,13.38
2018-09-04T04:28:27.471Z,13.70
2018-09-04T04:29:30.980Z,14.07
2018-09-04T04:30:35.338Z,13.58
2018-09-04T04:31:38.839Z,14.10
2018-09-04T04:32:42.368Z,13.35
2018-09-04T04:33:45.996Z,14.23
2018-09-04T04:34:49.500Z,14.63
2018-09-04T04:35:54.551Z,13.68
2018-09-04T04:36:57.989Z,13.32
2018-09-04T04:38:01.415Z,14.53
2018-09-04T04:39:07.384Z,14.25
2018-09-04T04:40:11.916Z,15.40
2018-09-04T04:41:16.774Z,15.05
2018-09-04T04:42:20.221Z,14.73
2018-09-04T04:43:23.648Z,14.73
2018-09-04T04:44:27.163Z,15.08
2018-09-04T04:45:31.660Z,15.30
2018-09-04T04:46:36.060Z,15.10
2018-09-04T04:47:44.850Z,14.85
2018-09-04T04:48:48.205Z,14.85
2018-09-04T04:49:51.612Z,15.88
2018-09-04T04:50:56.190Z,14.63
2018-09-04T04:51:59.740Z,15.43
2018-09-04T04:53:03.192Z,14.83
2018-09-04T04:54:06.637Z,14.23
2018-09-04T04:55:11.359Z,14.78
2018-09-04T04:56:15.850Z,15.03
2018-09-04T04:57:19.341Z,14.90
2018-09-04T04:58:22.729Z,14.93
2018-09-04T04:59:26.255Z,15.60
2018-09-04T05:00:30.843Z,15.32
2018-09-04T05:01:34.236Z,15.23
2018-09-04T05:02:37.649Z,14.47
2018-09-04T05:03:41.148Z,14.87
2018-09-04T05:04:44.539Z,15.32
2018-09-04T05:05:49.247Z,14.87
2018-09-04T05:06:52.732Z,14.98
2018-09-04T05:07:56.187Z,15.03
2018-09-04T05:08:59.589Z,14.60
2018-09-04T05:10:03.524Z,13.72
2018-09-04T05:11:08.718Z,14.73
2018-09-04T05:12:12.244Z,13.72
2018-09-04T05:13:15.733Z,14.50
2018-09-04T05:14:19.199Z,14.30
2018-09-04T05:15:24.672Z,15.13
2018-09-04T05:16:28.904Z,15.10
2018-09-04T05:17:32.332Z,15.35
2018-09-04T05:18:35.740Z,15.23
2018-09-04T05:19:39.171Z,13.98
2018-09-04T05:20:43.630Z,15.23
2018-09-04T05:21:47.072Z,15.10
2018-09-04T05:22:50.643Z,14.93
2018-09-04T05:23:54.105Z,14.87
2018-09-04T05:24:57.504Z,14.53
2018-09-04T05:26:02.062Z,14.95
2018-09-04T05:27:05.566Z,15.70
2018-09-04T05:28:08.964Z,14.70
2018-09-04T05:29:12.399Z,14.98
2018-09-04T05:30:16.759Z,15.05
2018-09-04T05:31:21.681Z,16.23
2018-09-04T05:33:30.445Z,16.82
2018-09-04T05:34:33.956Z,15.65
2018-09-04T05:35:43.872Z,16.02
2018-09-04T05:36:47.432Z,15.03
2018-09-04T05:37:50.917Z,15.10
2018-09-04T05:38:54.400Z,15.18
2018-09-04T05:39:57.787Z,15.38
2018-09-04T05:41:02.239Z,15.45
2018-09-04T05:42:11.114Z,15.43
2018-09-04T05:43:19.093Z,15.38
2018-09-04T05:44:22.512Z,14.35
2018-09-04T05:45:28.411Z,15.10
2018-09-04T05:46:37.216Z,14.33
2018-09-04T05:47:41.349Z,15.30
2018-09-04T05:48:44.792Z,13.55
2018-09-04T05:49:48.392Z,14.65
2018-09-04T05:50:53.980Z,15.13
2018-09-04T05:51:57.468Z,15.03
2018-09-04T05:53:01.855Z,15.53
2018-09-04T05:54:05.284Z,15.78
2018-09-04T05:55:09.843Z,16.02
2018-09-04T05:56:14.400Z,29.45
2018-09-04T05:57:17.864Z,22.13
2018-09-04T05:58:21.261Z,25.08
2018-09-04T05:59:24.656Z,24.07
2018-09-04T06:00:31.894Z,22.60
2018-09-04T06:01:39.206Z,22.90
2018-09-04T06:02:42.998Z,21.52
2018-09-04T06:03:46.440Z,21.12
2018-09-04T06:04:49.936Z,21.35
2018-09-04T06:05:56.153Z,20.48
2018-09-04T06:06:59.593Z,19.52
2018-09-04T06:08:03.040Z,19.82
2018-09-04T06:09:06.680Z,19.95
2018-09-04T06:10:11.370Z,19.98
2018-09-04T06:11:16.003Z,19.50
2018-09-04T06:12:19.420Z,19.73
2018-09-04T06:13:22.983Z,19.07
2018-09-04T06:14:26.384Z,18.75
2018-09-04T06:15:30.930Z,19.00
2018-09-04T06:16:34.418Z,18.55
2018-09-04T06:17:37.963Z,20.40
2018-09-04T06:18:41.373Z,19.30
2018-09-04T06:19:44.796Z,19.65
2018-09-04T06:20:49.119Z,19.10
2018-09-04T06:21:52.606Z,19.40
2018-09-04T06:22:55.984Z,20.57
2018-09-04T06:23:59.461Z,20.82
2018-09-04T06:25:02.943Z,19.50
2018-09-04T06:26:07.550Z,20.02
2018-09-04T06:27:11.117Z,19.92
2018-09-04T06:28:14.525Z,21.17
2018-09-04T06:29:17.931Z,20.90
2018-09-04T06:30:22.527Z,22.37
2018-09-04T06:31:27.996Z,22.30
2018-09-04T06:32:31.485Z,21.52
2018-09-04T06:33:34.976Z,21.37
2018-09-04T06:34:38.388Z,22.52
2018-09-04T06:35:43.107Z,20.48
2018-09-04T06:36:46.686Z,21.27
2018-09-04T06:37:50.057Z,21.42
2018-09-04T06:38:53.488Z,21.90
2018-09-04T06:39:57.010Z,22.55
2018-09-04T06:41:01.570Z,22.90
2018-09-04T06:42:05.151Z,22.35
2018-09-04T06:43:08.549Z,23.38
2018-09-04T06:44:11.944Z,23.15
2018-09-04T06:45:16.619Z,23.05
2018-09-04T06:46:21.161Z,23.42
2018-09-04T06:47:24.628Z,22.65
2018-09-04T06:48:28.036Z,21.33
2018-09-04T06:49:31.427Z,24.70
2018-09-04T06:50:35.859Z,24.60
2018-09-04T06:51:39.317Z,23.20
2018-09-04T06:52:42.728Z,24.27
2018-09-04T06:53:46.234Z,23.95
2018-09-04T06:54:49.660Z,25.02
2018-09-04T06:55:54.272Z,24.35
2018-09-04T06:56:57.760Z,23.73
2018-09-04T06:58:01.293Z,25.72
2018-09-04T06:59:04.699Z,24.65
2018-09-04T07:00:11.681Z,25.57
2018-09-04T07:01:16.190Z,24.50
2018-09-04T07:02:19.780Z,23.55
2018-09-04T07:03:25.872Z,23.55
2018-09-04T07:04:33.063Z,24.82
2018-09-04T07:05:37.807Z,23.83
2018-09-04T07:06:41.266Z,24.45
2018-09-04T07:07:44.654Z,25.37
2018-09-04T07:08:48.088Z,25.43
2018-09-04T07:09:53.648Z,25.65
2018-09-04T07:10:58.580Z,26.35
2018-09-04T07:12:02.061Z,25.05
2018-09-04T07:13:07.975Z,25.68
2018-09-04T07:14:11.433Z,26.30
2018-09-04T07:15:16.139Z,27.02
2018-09-04T07:16:20.670Z,27.17
2018-09-04T07:17:24.164Z,27.00
2018-09-04T07:18:27.558Z,27.13
2018-09-04T07:19:30.975Z,27.55
2018-09-04T07:20:35.511Z,26.07
2018-09-04T07:21:39.046Z,27.05
2018-09-04T07:22:42.500Z,26.15
2018-09-04T07:23:46.016Z,27.15
2018-09-04T07:24:49.427Z,26.50
2018-09-04T07:25:53.920Z,25.23
2018-09-04T07:26:57.340Z,26.68
2018-09-04T07:28:00.880Z,25.77
2018-09-04T07:29:04.273Z,24.52
2018-09-04T07:30:09.763Z,25.60
2018-09-04T07:31:15.625Z,25.30
2018-09-04T07:32:19.092Z,25.72
2018-09-04T07:33:22.663Z,25.85
2018-09-04T07:34:26.048Z,26.82
2018-09-04T07:35:30.414Z,26.90
2018-09-04T07:36:34.291Z,25.30
2018-09-04T07:37:37.771Z,25.70
2018-09-04T07:38:41.186Z,24.60
2018-09-04T07:39:44.656Z,25.70
2018-09-04T07:40:49.195Z,24.87
2018-09-04T07:41:52.687Z,25.15
2018-09-04T07:42:56.080Z,26.17
2018-09-04T07:43:59.521Z,26.30
2018-09-04T07:45:03.213Z,26.25
2018-09-04T07:46:07.847Z,26.45
2018-09-04T07:47:11.265Z,26.33
2018-09-04T07:48:14.687Z,25.68
2018-09-04T07:49:18.113Z,26.05
2018-09-04T07:50:22.740Z,26.45
2018-09-04T07:51:27.189Z,24.67
2018-09-04T07:52:30.740Z,26.73
2018-09-04T07:53:34.162Z,26.45
2018-09-04T07:54:37.621Z,27.48
2018-09-04T07:55:42.190Z,25.88
2018-09-04T07:56:45.688Z,25.10
2018-09-04T07:57:49.132Z,25.52
2018-09-04T07:58:52.567Z,24.87
2018-09-04T07:59:56.101Z,24.23
2018-09-04T08:01:00.587Z,27.07
2018-09-04T08:02:04.004Z,24.80
2018-09-04T08:03:07.433Z,25.97
2018-09-04T08:04:11.157Z,25.50
2018-09-04T08:05:15.538Z,25.70
2018-09-04T08:06:20.340Z,26.75
2018-09-04T08:07:23.807Z,25.57
2018-09-04T08:08:27.245Z,24.90
2018-09-04T08:09:30.710Z,24.85
2018-09-04T08:10:36.197Z,25.62
2018-09-04T08:11:39.640Z,24.90
2018-09-04T08:12:43.089Z,25.35
2018-09-04T08:13:46.559Z,24.50
2018-09-04T08:14:50.036Z,26.00
2018-09-04T08:15:54.516Z,26.87
2018-09-04T08:16:58.151Z,24.45
2018-09-04T08:18:01.756Z,25.80
2018-09-04T08:19:05.185Z,25.10
2018-09-04T08:20:09.552Z,25.90
2018-09-04T08:21:14.640Z,24.85
2018-09-04T08:22:18.104Z,26.48
2018-09-04T08:23:21.496Z,26.17
2018-09-04T08:24:24.924Z,24.85
2018-09-04T08:25:30.038Z,25.45
2018-09-04T08:26:33.600Z,25.80
2018-09-04T08:27:37.027Z,25.15
2018-09-04T08:28:40.420Z,25.02
2018-09-04T08:29:44.008Z,27.30
2018-09-04T08:30:48.603Z,24.72
2018-09-04T08:31:52.035Z,24.50
2018-09-04T08:32:55.586Z,24.23
2018-09-04T08:33:58.956Z,24.32
2018-09-04T08:35:02.624Z,24.23
2018-09-04T08:36:07.128Z,24.27
2018-09-04T08:37:10.648Z,22.73
2018-09-04T08:38:14.300Z,23.75
2018-09-04T08:39:17.688Z,22.35
2018-09-04T08:40:22.979Z,20.85
2018-09-04T08:41:27.391Z,19.55
2018-09-04T08:42:30.976Z,21.20
2018-09-04T08:43:34.425Z,22.15
2018-09-04T08:44:37.963Z,22.00
2018-09-04T08:45:42.835Z,23.32
2018-09-04T08:46:46.293Z,23.00
2018-09-04T08:47:49.816Z,22.90
2018-09-04T08:48:53.204Z,22.95
2018-09-04T08:49:56.615Z,24.65
2018-09-04T08:51:01.380Z,22.93
2018-09-04T08:52:04.856Z,21.70
2018-09-04T08:53:08.333Z,22.20
2018-09-04T08:54:11.888Z,21.95
2018-09-04T08:55:16.527Z,21.70
2018-09-04T08:56:20.862Z,22.90
2018-09-04T08:57:24.376Z,21.62
2018-09-04T08:58:27.873Z,22.48
2018-09-04T08:59:31.343Z,20.95
2018-09-04T09:00:35.910Z,21.60
2018-09-04T09:01:39.380Z,19.98
2018-09-04T09:02:42.803Z,21.45
2018-09-04T09:03:46.363Z,20.02
2018-09-04T09:04:49.952Z,19.57
2018-09-04T09:05:54.523Z,19.67
2018-09-04T09:06:58.122Z,20.60
2018-09-04T09:08:01.513Z,20.95
2018-09-04T09:09:07.318Z,18.52
2018-09-04T09:10:12.530Z,18.65
2018-09-04T09:11:17.064Z,18.98
2018-09-04T09:12:20.493Z,19.95
2018-09-04T09:13:24.014Z,20.92
2018-09-04T09:14:27.419Z,21.20
2018-09-04T09:15:31.874Z,21.27
2018-09-04T09:16:35.626Z,21.93
2018-09-04T09:17:39.076Z,25.00
2018-09-04T09:18:42.500Z,20.92
2018-09-04T09:19:46.003Z,22.10
2018-09-04T09:20:50.793Z,20.55
2018-09-04T09:21:54.206Z,20.75
2018-09-04T09:22:57.702Z,19.17
2018-09-04T09:24:01.052Z,18.30
2018-09-04T09:25:05.719Z,18.17
2018-09-04T09:26:10.184Z,18.15
2018-09-04T09:27:13.773Z,16.73
2018-09-04T09:28:17.171Z,17.40
2018-09-04T09:29:20.584Z,19.02
2018-09-04T09:30:25.247Z,18.12
2018-09-04T09:31:29.653Z,17.82
2018-09-04T09:32:33.257Z,19.92
2018-09-04T09:33:36.853Z,21.30
2018-09-04T09:34:40.256Z,17.85
2018-09-04T09:35:44.872Z,17.73
2018-09-04T09:36:48.430Z,18.27
2018-09-04T09:37:51.904Z,17.80
2018-09-04T09:38:55.341Z,18.52
2018-09-04T09:39:58.786Z,20.65
2018-09-04T09:41:03.336Z,18.12
2018-09-04T09:42:06.944Z,16.30
2018-09-04T09:43:10.493Z,16.37
2018-09-04T09:44:13.920Z,17.35
2018-09-04T09:45:18.494Z,16.80
2018-09-04T09:46:22.935Z,17.12
2018-09-04T09:47:26.467Z,17.02
2018-09-04T09:48:35.121Z,18.23
2018-09-04T09:49:38.781Z,15.70
2018-09-04T09:50:46.172Z,17.87
2018-09-04T09:51:49.673Z,17.27
2018-09-04T09:52:53.127Z,16.97
2018-09-04T09:53:56.562Z,17.20
2018-09-04T09:55:00.075Z,17.82
2018-09-04T09:56:05.022Z,17.00
2018-09-04T09:57:08.535Z,18.02
2018-09-04T09:58:11.893Z,18.00
2018-09-04T09:59:15.544Z,16.42
2018-09-04T10:00:25.072Z,16.48
2018-09-04T10:01:30.780Z,16.75
2018-09-04T10:02:39.551Z,15.88
2018-09-04T10:03:49.013Z,14.93
2018-09-04T10:04:52.503Z,14.53
2018-09-04T10:05:57.157Z,14.98
2018-09-04T10:07:00.821Z,15.43
2018-09-04T10:08:04.416Z,14.87
2018-09-04T10:09:08.453Z,15.15
2018-09-04T10:10:13.034Z,14.18
2018-09-04T10:11:17.729Z,14.90
2018-09-04T10:12:21.148Z,13.80
2018-09-04T10:13:24.681Z,13.55
2018-09-04T10:14:28.124Z,14.47
2018-09-04T10:15:32.624Z,13.88
2018-09-04T10:16:36.059Z,15.63
2018-09-04T10:17:39.560Z,15.10
2018-09-04T10:18:42.996Z,12.07
2018-09-04T10:19:53.079Z,14.68
2018-09-04T10:20:57.619Z,13.75
2018-09-04T10:22:01.300Z,13.45
2018-09-04T10:23:04.750Z,13.08
2018-09-04T10:24:08.401Z,13.68
2018-09-04T10:25:12.951Z,13.58
2018-09-04T10:26:17.647Z,12.28
2018-09-04T10:27:21.171Z,12.58
2018-09-04T10:28:24.579Z,13.60
2018-09-04T10:29:28.216Z,13.15
2018-09-04T10:30:33.127Z,12.85
2018-09-04T10:31:36.571Z,12.50
2018-09-04T10:32:41.516Z,12.98
2018-09-04T10:33:45.037Z,12.58
2018-09-04T10:34:48.472Z,12.40
2018-09-04T10:35:53.107Z,14.83
2018-09-04T10:36:56.570Z,14.13
2018-09-04T10:38:00.001Z,13.48
2018-09-04T10:39:08.945Z,12.37
2018-09-04T10:40:18.538Z,13.03
2018-09-04T10:41:22.961Z,14.73
2018-09-04T10:42:31.245Z,13.20
2018-09-04T10:43:34.716Z,14.25
2018-09-04T10:44:38.155Z,13.28
2018-09-04T10:45:48.229Z,13.83
2018-09-04T10:46:51.667Z,13.62
2018-09-04T10:47:55.072Z,13.20
2018-09-04T10:48:58.478Z,13.72
2018-09-04T10:50:02.076Z,13.80
2018-09-04T10:51:06.754Z,14.80
2018-09-04T10:52:10.177Z,14.60
2018-09-04T10:53:13.729Z,14.18
2018-09-04T10:54:17.180Z,14.03
2018-09-04T10:55:21.888Z,14.63
2018-09-04T10:56:26.769Z,14.78
2018-09-04T10:57:30.219Z,14.47
2018-09-04T10:58:33.658Z,14.03
2018-09-04T10:59:37.074Z,15.00
2018-09-04T11:00:41.640Z,17.25
2018-09-04T11:01:45.181Z,16.67
2018-09-04T11:02:48.628Z,15.50
2018-09-04T11:03:52.121Z,16.37
2018-09-04T11:04:55.612Z,15.48
2018-09-04T11:06:00.163Z,15.08
2018-09-04T11:07:03.616Z,15.08
2018-09-04T11:08:07.035Z,15.08
2018-09-04T11:09:11.633Z,15.35
2018-09-04T11:10:16.033Z,15.13
2018-09-04T11:11:20.584Z,15.08
2018-09-04T11:12:24.495Z,13.98
2018-09-04T11:13:28.033Z,15.13
2018-09-04T11:14:31.447Z,15.25
2018-09-04T11:15:36.626Z,14.15
2018-09-04T11:16:40.131Z,14.03
2018-09-04T11:17:43.562Z,14.90
2018-09-04T11:18:47.111Z,13.83
2018-09-04T11:19:50.556Z,15.75
2018-09-04T11:20:54.792Z,14.50
2018-09-04T11:21:58.255Z,14.98
2018-09-04T11:23:01.664Z,15.38
2018-09-04T11:24:05.114Z,15.25
2018-09-04T11:25:09.691Z,14.73
2018-09-04T11:26:14.217Z,14.28
2018-09-04T11:27:17.696Z,14.70
2018-09-04T11:28:21.138Z,14.05
2018-09-04T11:29:24.928Z,13.80
2018-09-04T11:30:29.661Z,12.13
2018-09-04T11:31:33.135Z,11.78
2018-09-04T11:32:36.584Z,11.93
2018-09-04T11:33:40.078Z,11.38
2018-09-04T11:34:43.644Z,11.93
2018-09-04T11:35:49.980Z,11.48
2018-09-04T11:36:53.399Z,11.05
2018-09-04T11:37:56.881Z,11.57
2018-09-04T11:39:00.352Z,11.53
2018-09-04T11:40:04.482Z,10.93
2018-09-04T11:41:09.046Z,11.75
2018-09-04T11:42:13.622Z,12.15
2018-09-04T11:43:17.172Z,15.23
2018-09-04T11:44:20.573Z,10.23
2018-09-04T11:45:25.329Z,13.03
2018-09-04T11:46:30.257Z,12.47
2018-09-04T11:47:33.755Z,12.58
2018-09-04T11:48:38.453Z,11.78
2018-09-04T11:49:42.743Z,12.13
2018-09-04T11:50:47.983Z,11.70
2018-09-04T11:51:51.481Z,12.03
2018-09-04T11:52:54.948Z,12.33
2018-09-04T11:53:58.360Z,12.18
2018-09-04T11:55:01.801Z,12.05
2018-09-04T11:56:06.537Z,11.78
2018-09-04T11:57:10.001Z,12.93
2018-09-04T11:58:13.440Z,12.78
2018-09-04T11:59:16.987Z,13.03
2018-09-04T12:00:38.993Z,18.23
2018-09-04T12:01:46.193Z,20.30
2018-09-04T12:02:49.785Z,21.42
2018-09-04T12:03:53.480Z,22.32
2018-09-04T12:04:56.980Z,19.70
2018-09-04T12:06:01.535Z,20.82
2018-09-04T12:07:05.256Z,18.87
2018-09-04T12:08:09.180Z,18.92
2018-09-04T12:09:12.734Z,19.15
2018-09-04T12:10:18.140Z,17.17
2018-09-04T12:11:22.552Z,17.10
2018-09-04T12:12:29.665Z,16.85
2018-09-04T12:13:33.067Z,15.40
2018-09-04T12:14:36.549Z,15.35
2018-09-04T12:15:42.657Z,14.18
2018-09-04T12:16:46.106Z,16.15
2018-09-04T12:17:49.547Z,16.23
2018-09-04T12:18:52.967Z,13.20
2018-09-04T12:21:10.160Z,12.18
2018-09-04T12:22:13.544Z,11.85
2018-09-04T12:23:16.940Z,12.20
2018-09-04T12:24:20.624Z,12.93
2018-09-04T12:25:25.854Z,13.53
2018-09-04T12:26:30.066Z,11.22
2018-09-04T12:27:33.517Z,11.38
2018-09-04T12:28:36.948Z,11.25
2018-09-04T12:29:40.412Z,11.73
2018-09-04T12:30:44.905Z,11.93
2018-09-04T12:31:48.437Z,12.45
2018-09-04T12:32:51.984Z,11.57
2018-09-04T12:33:55.653Z,13.50
2018-09-04T12:34:59.016Z,11.75
2018-09-04T12:36:03.657Z,13.08
2018-09-04T12:37:07.113Z,13.80
2018-09-04T12:38:12.201Z,13.75
2018-09-04T12:39:15.641Z,14.18
2018-09-04T12:40:20.200Z,12.25
2018-09-04T12:41:24.392Z,13.03
2018-09-04T12:42:28.561Z,13.58
2018-09-04T12:43:31.960Z,11.10
2018-09-04T12:44:35.564Z,9.48
2018-09-04T12:45:45.183Z,10.58
2018-09-04T12:46:48.649Z,10.90
2018-09-04T12:47:52.557Z,11.20
2018-09-04T12:48:55.973Z,10.15
2018-09-04T12:49:59.427Z,9.90
2018-09-04T12:51:04.231Z,10.03
2018-09-04T12:52:07.849Z,11.43
2018-09-04T12:53:11.229Z,10.30
2018-09-04T12:54:14.677Z,11.55
2018-09-04T12:55:19.291Z,10.55
2018-09-04T12:56:23.612Z,10.78
2018-09-04T12:57:27.050Z,11.80
2018-09-04T12:58:30.497Z,10.53
2018-09-04T12:59:33.953Z,11.97
2018-09-04T13:00:39.149Z,11.60
2018-09-04T13:01:42.568Z,11.33
2018-09-04T13:02:46.284Z,11.33
2018-09-04T13:03:49.848Z,10.18
2018-09-04T13:04:53.305Z,10.70
2018-09-04T13:05:57.638Z,11.33
2018-09-04T13:07:01.230Z,11.05
2018-09-04T13:08:04.640Z,11.30
2018-09-04T13:09:08.205Z,11.48
2018-09-04T13:10:12.660Z,11.28
2018-09-04T13:11:17.099Z,11.03
2018-09-04T13:12:20.579Z,11.15
2018-09-04T13:13:24.089Z,11.30
2018-09-04T13:14:27.785Z,10.65
2018-09-04T13:15:33.082Z,10.55
2018-09-04T13:16:36.548Z,10.15
2018-09-04T13:17:40.000Z,10.93
2018-09-04T13:18:43.449Z,11.57
2018-09-04T13:19:46.951Z,12.23
2018-09-04T13:20:51.369Z,10.53
2018-09-04T13:21:54.892Z,10.35
2018-09-04T13:22:58.299Z,10.72
2018-09-04T13:24:01.746Z,11.12
2018-09-04T13:25:06.720Z,11.48
2018-09-04T13:26:11.259Z,12.18
2018-09-04T13:27:14.730Z,13.30
2018-09-04T13:28:18.273Z,13.40
2018-09-04T13:29:21.688Z,12.03
2018-09-04T13:30:26.399Z,11.80
2018-09-04T13:31:30.129Z,11.60
2018-09-04T13:32:33.540Z,11.70
2018-09-04T13:33:37.016Z,10.75
2018-09-04T13:34:40.509Z,12.63
2018-09-04T13:35:45.037Z,10.50
2018-09-04T13:36:48.484Z,11.48
2018-09-04T13:37:51.888Z,11.50
2018-09-04T13:38:55.359Z,11.95
2018-09-04T13:39:59.729Z,11.08
2018-09-04T13:41:07.811Z,10.85
2018-09-04T13:42:11.287Z,12.20
2018-09-04T13:43:14.730Z,12.82
2018-09-04T13:44:18.149Z,10.82
2018-09-04T13:45:22.792Z,11.12
2018-09-04T13:46:27.519Z,11.73